createdAt,value
2023-02-21T00:01:07.891Z,2.77
2023-02-21T00:03:53.568Z,6.83
2023-02-21T00:06:39.112Z,4.67
2023-02-21T00:09:25.988Z,3.97
2023-02-21T00:12:11.591Z,9.43
2023-02-21T00:14:57.606Z,3.67
2023-02-21T00:17:43.776Z,4.30
2023-02-21T00:20:29.388Z,5.57
2023-02-21T00:23:14.785Z,6.70
2023-02-21T00:26:02.015Z,3.47
2023-02-21T00:28:47.454Z,5.77
2023-02-21T00:31:36.966Z,4.43
2023-02-21T00:34:22.469Z,6.10
2023-02-21T00:37:08.263Z,2.83
2023-02-21T00:39:53.709Z,2.80
2023-02-21T00:42:40.702Z,4.40
2023-02-21T00:45:27.231Z,5.17
2023-02-21T00:48:12.694Z,4.77
2023-02-21T00:50:59.519Z,3.17
2023-02-21T00:53:45.169Z,8.00
2023-02-21T00:56:30.484Z,5.70
2023-02-21T00:59:17.477Z,5.90
2023-02-21T01:02:02.949Z,6.50
2023-02-21T01:04:48.409Z,5.77
2023-02-21T01:07:34.007Z,4.97
2023-02-21T01:10:19.879Z,6.83
2023-02-21T01:13:05.476Z,8.50
2023-02-21T01:15:52.457Z,4.70
2023-02-21T01:18:38.533Z,4.13
2023-02-21T01:21:24.464Z,7.70
2023-02-21T01:24:11.942Z,4.77
2023-02-21T01:26:57.387Z,4.20
2023-02-21T01:29:43.045Z,4.83
2023-02-21T01:32:29.853Z,4.93
2023-02-21T01:35:15.569Z,6.83
2023-02-21T01:38:00.932Z,4.53
2023-02-21T01:40:46.580Z,5.60
2023-02-21T01:43:34.508Z,7.50
2023-02-21T01:46:20.504Z,5.60
2023-02-21T01:49:09.944Z,4.93
2023-02-21T01:51:58.237Z,8.70
2023-02-21T01:54:46.607Z,4.53
2023-02-21T01:57:33.250Z,3.33
2023-02-21T02:00:22.973Z,3.37
2023-02-21T02:03:13.164Z,5.43
2023-02-21T02:06:02.989Z,7.80
2023-02-21T02:08:51.000Z,4.30
2023-02-21T02:11:58.864Z,7.53
2023-02-21T02:14:50.191Z,4.50
2023-02-21T02:17:34.137Z,5.47
2023-02-21T02:20:43.933Z,4.17
2023-02-21T02:23:44.256Z,7.30
2023-02-21T02:27:05.898Z,5.50
2023-02-21T02:30:11.767Z,7.27
2023-02-21T02:32:59.242Z,4.40
2023-02-21T02:35:32.382Z,5.27
2023-02-21T02:38:04.030Z,5.20
2023-02-21T02:40:36.476Z,5.00
2023-02-21T02:43:13.269Z,4.23
2023-02-21T02:45:46.361Z,7.10
2023-02-21T02:48:19.433Z,8.00
2023-02-21T02:50:52.151Z,5.17
2023-02-21T02:53:22.761Z,6.63
2023-02-21T02:55:57.289Z,5.57
2023-02-21T02:58:29.297Z,4.90
2023-02-21T03:01:09.098Z,6.97
2023-02-21T03:03:53.255Z,7.37
2023-02-21T03:06:31.683Z,6.63
2023-02-21T03:09:09.560Z,4.70
2023-02-21T03:11:44.156Z,5.67
2023-02-21T03:14:17.610Z,4.37
2023-02-21T03:16:51.379Z,5.73
2023-02-21T03:19:27.182Z,4.60
2023-02-21T03:22:00.715Z,6.70
2023-02-21T03:24:30.577Z,8.67
2023-02-21T03:27:03.668Z,2.90
2023-02-21T03:29:52.031Z,4.17
2023-02-21T03:32:25.233Z,4.90
2023-02-21T03:34:54.860Z,7.43
2023-02-21T03:37:33.163Z,7.23
2023-02-21T03:40:02.301Z,5.17
2023-02-21T03:42:33.669Z,7.20
2023-02-21T03:45:02.291Z,4.00
2023-02-21T03:47:30.516Z,10.30
2023-02-21T03:49:59.078Z,5.33
2023-02-21T03:52:28.721Z,5.57
2023-02-21T03:54:57.156Z,9.63
2023-02-21T03:57:26.900Z,4.33
2023-02-21T03:59:55.192Z,3.80
2023-02-21T04:02:24.395Z,6.20
2023-02-21T04:04:52.638Z,5.90
2023-02-21T04:07:24.043Z,6.30
2023-02-21T04:09:53.795Z,4.60
2023-02-21T04:12:29.478Z,5.07
2023-02-21T04:14:58.730Z,5.03
2023-02-21T04:17:27.395Z,5.73
2023-02-21T04:19:56.992Z,3.87
2023-02-21T04:22:26.145Z,4.70
2023-02-21T04:24:55.986Z,5.47
2023-02-21T04:27:27.040Z,5.80
2023-02-21T04:29:57.475Z,4.03
2023-02-21T04:32:25.784Z,4.20
2023-02-21T04:34:54.804Z,5.00
2023-02-21T04:37:23.421Z,16.00
2023-02-21T04:39:51.850Z,7.87
2023-02-21T04:42:21.448Z,4.90
2023-02-21T04:44:59.816Z,4.93
2023-02-21T04:47:29.668Z,3.93
2023-02-21T04:49:58.660Z,5.23
2023-02-21T04:52:26.820Z,6.60
2023-02-21T04:54:55.029Z,5.33
2023-02-21T04:57:24.883Z,3.37
2023-02-21T04:59:58.150Z,3.60
2023-02-21T05:02:26.482Z,3.47
2023-02-21T05:04:54.719Z,6.97
2023-02-21T05:07:22.818Z,2.97
2023-02-21T05:09:50.964Z,3.80
2023-02-21T05:12:19.097Z,3.10
2023-02-21T05:14:48.659Z,7.40
2023-02-21T05:17:16.857Z,5.83
2023-02-21T05:19:44.953Z,5.73
2023-02-21T05:22:13.120Z,3.37
2023-02-21T05:24:43.524Z,5.10
2023-02-21T05:27:15.601Z,4.63
2023-02-21T05:29:46.974Z,4.90
2023-02-21T05:32:17.763Z,3.77
2023-02-21T05:34:47.727Z,8.50
2023-02-21T05:37:16.352Z,3.70
2023-02-21T05:39:44.694Z,6.13
2023-02-21T05:42:12.804Z,8.30
2023-02-21T05:44:41.314Z,6.80
2023-02-21T05:47:09.515Z,8.40
2023-02-21T05:49:39.111Z,8.87
2023-02-21T05:52:07.846Z,12.93
2023-02-21T05:54:36.106Z,15.33
2023-02-21T05:57:04.676Z,20.37
2023-02-21T05:59:32.914Z,24.33
2023-02-21T06:02:01.773Z,18.90
2023-02-21T06:04:29.924Z,16.90
2023-02-21T06:06:59.474Z,13.73
2023-02-21T06:09:27.670Z,16.53
2023-02-21T06:11:58.068Z,17.60
2023-02-21T06:14:26.872Z,16.83
2023-02-21T06:16:55.074Z,16.37
2023-02-21T06:19:23.145Z,16.57
2023-02-21T06:21:51.563Z,13.57
2023-02-21T06:24:21.060Z,14.70
2023-02-21T06:26:49.206Z,10.90
2023-02-21T06:29:17.370Z,8.90
2023-02-21T06:31:45.536Z,17.83
2023-02-21T06:34:13.895Z,8.80
2023-02-21T06:36:42.030Z,7.03
2023-02-21T06:39:13.169Z,12.03
2023-02-21T06:41:42.631Z,12.60
2023-02-21T06:44:10.789Z,13.87
2023-02-21T06:46:39.086Z,21.80
2023-02-21T06:49:07.283Z,17.07
2023-02-21T06:51:36.464Z,20.13
2023-02-21T06:54:05.567Z,18.57
2023-02-21T06:56:33.773Z,16.03
2023-02-21T06:59:03.754Z,17.40
2023-02-21T07:01:32.770Z,17.17
2023-02-21T07:04:01.506Z,19.57
2023-02-21T07:06:31.348Z,25.37
2023-02-21T07:08:59.452Z,19.73
2023-02-21T07:11:27.902Z,27.73
2023-02-21T07:13:57.077Z,23.97
2023-02-21T07:16:27.287Z,22.63
2023-02-21T07:18:55.781Z,26.60
2023-02-21T07:21:24.166Z,19.67
2023-02-21T07:23:52.389Z,18.90
2023-02-21T07:26:20.576Z,21.93
2023-02-21T07:28:49.059Z,14.47
2023-02-21T07:31:19.634Z,12.00
2023-02-21T07:33:49.473Z,14.33
2023-02-21T07:36:18.153Z,9.10
2023-02-21T07:38:46.305Z,20.87
2023-02-21T07:41:15.916Z,8.70
2023-02-21T07:43:44.622Z,9.00
2023-02-21T07:46:13.728Z,8.23
2023-02-21T07:48:42.131Z,10.93
2023-02-21T07:51:11.841Z,13.60
2023-02-21T07:53:40.065Z,56.37
2023-02-21T07:56:08.641Z,46.23
2023-02-21T07:58:38.153Z,35.60
2023-02-21T08:01:07.089Z,27.07
2023-02-21T08:03:35.337Z,19.33
2023-02-21T08:06:03.625Z,8.80
2023-02-21T08:08:33.165Z,11.30
2023-02-21T08:11:01.421Z,10.53
2023-02-21T08:13:29.752Z,54.33
2023-02-21T08:15:57.879Z,40.03
2023-02-21T08:18:26.494Z,20.33
2023-02-21T08:20:56.666Z,19.87
2023-02-21T08:23:25.256Z,11.07
2023-02-21T08:25:54.795Z,9.40
2023-02-21T08:28:22.841Z,9.87
2023-02-21T08:30:50.952Z,11.50
2023-02-21T08:33:19.134Z,5.60
2023-02-21T08:35:47.405Z,7.20
2023-02-21T08:38:15.496Z,7.00
2023-02-21T08:40:43.631Z,7.37
2023-02-21T08:43:13.174Z,11.10
2023-02-21T08:45:41.418Z,8.60
2023-02-21T08:48:09.627Z,6.43
2023-02-21T08:50:37.853Z,5.93
2023-02-21T08:53:06.073Z,6.57
2023-02-21T08:55:34.269Z,8.47
2023-02-21T08:58:02.496Z,10.30
2023-02-21T09:00:32.177Z,14.70
2023-02-21T09:03:01.012Z,6.30
2023-02-21T09:05:30.997Z,6.23
2023-02-21T09:08:02.523Z,4.50
2023-02-21T09:10:34.054Z,8.03
2023-02-21T09:13:02.860Z,4.27
2023-02-21T09:15:32.875Z,4.80
2023-02-21T09:18:01.154Z,9.07
2023-02-21T09:20:29.330Z,5.60
2023-02-21T09:22:57.498Z,7.17
2023-02-21T09:25:26.910Z,11.20
2023-02-21T09:27:55.298Z,7.53
2023-02-21T09:30:27.432Z,6.37
2023-02-21T09:32:58.800Z,9.47
2023-02-21T09:35:30.438Z,5.27
2023-02-21T09:37:59.368Z,7.03
2023-02-21T09:40:35.514Z,6.77
2023-02-21T09:43:04.897Z,16.23
2023-02-21T09:45:35.528Z,4.30
2023-02-21T09:48:09.115Z,5.93
2023-02-21T09:50:44.593Z,12.70
2023-02-21T09:53:17.437Z,6.00
2023-02-21T09:55:45.992Z,5.00
2023-02-21T09:58:16.745Z,8.33
2023-02-21T10:00:46.823Z,4.30
2023-02-21T10:03:45.786Z,5.83
2023-02-21T10:06:25.154Z,5.30
2023-02-21T10:08:58.900Z,5.30
2023-02-21T10:11:36.288Z,6.17
2023-02-21T10:14:14.236Z,6.83
2023-02-21T10:16:48.932Z,5.53
2023-02-21T10:19:26.099Z,7.70
2023-02-21T10:21:55.522Z,5.97
2023-02-21T10:24:25.266Z,6.37
2023-02-21T10:27:00.827Z,8.40
2023-02-21T10:29:40.848Z,3.60
2023-02-21T10:32:10.235Z,6.40
2023-02-21T10:34:40.237Z,9.70
2023-02-21T10:37:29.349Z,8.37
2023-02-21T10:40:07.562Z,12.10
2023-02-21T10:42:41.828Z,15.13
2023-02-21T10:45:12.716Z,5.97
2023-02-21T10:47:50.923Z,6.00
2023-02-21T10:50:38.312Z,8.70
2023-02-21T10:53:07.421Z,56.80
2023-02-21T10:55:36.100Z,11.50
2023-02-21T10:58:10.048Z,18.07
2023-02-21T11:00:42.205Z,11.97
2023-02-21T11:03:21.944Z,10.17
2023-02-21T11:05:53.268Z,13.90
2023-02-21T11:08:40.663Z,10.90
2023-02-21T11:11:09.663Z,11.43
2023-02-21T11:13:38.427Z,7.60
2023-02-21T11:16:12.921Z,14.07
2023-02-21T11:18:41.165Z,10.40
2023-02-21T11:21:15.749Z,8.67
2023-02-21T11:23:50.188Z,12.47
2023-02-21T11:26:18.445Z,9.40
2023-02-21T11:28:48.523Z,7.60
2023-02-21T11:31:19.446Z,9.20
2023-02-21T11:33:56.911Z,11.70
2023-02-21T11:36:30.843Z,8.53
2023-02-21T11:39:08.423Z,8.33
2023-02-21T11:41:39.637Z,8.60
2023-02-21T11:44:30.913Z,16.77
2023-02-21T11:47:16.781Z,7.77
2023-02-21T11:49:54.494Z,8.17
2023-02-21T11:52:27.140Z,14.83
2023-02-21T11:54:55.351Z,8.50
2023-02-21T11:57:31.232Z,8.73
2023-02-21T12:00:08.853Z,6.27
2023-02-21T12:03:04.081Z,6.03
2023-02-21T12:05:43.851Z,10.27
2023-02-21T12:08:35.214Z,10.07
2023-02-21T12:11:14.662Z,6.97
2023-02-21T12:13:52.912Z,9.73
2023-02-21T12:16:33.995Z,9.93
2023-02-21T12:19:16.115Z,7.50
2023-02-21T12:22:03.118Z,7.87
2023-02-21T12:24:57.251Z,7.67
2023-02-21T12:27:35.124Z,8.10
2023-02-21T12:30:20.728Z,7.20
2023-02-21T12:32:59.204Z,9.87
2023-02-21T12:35:54.803Z,6.80
2023-02-21T12:38:32.595Z,8.70
2023-02-21T12:41:11.054Z,7.50
2023-02-21T12:43:49.505Z,9.20
2023-02-21T12:46:26.490Z,9.00
2023-02-21T12:49:01.141Z,9.00
2023-02-21T12:51:35.193Z,7.07
2023-02-21T12:54:06.385Z,7.60
2023-02-21T12:56:40.919Z,7.83
2023-02-21T12:59:16.661Z,7.33
2023-02-21T13:01:49.248Z,10.07
2023-02-21T13:04:28.588Z,6.60
2023-02-21T13:07:03.021Z,7.93
2023-02-21T13:09:35.989Z,10.33
2023-02-21T13:12:10.336Z,6.87
2023-02-21T13:14:44.751Z,5.93
2023-02-21T13:17:16.802Z,10.57
2023-02-21T13:19:48.894Z,7.20
2023-02-21T13:23:12.226Z,6.50
2023-02-21T13:26:13.951Z,8.10
2023-02-21T13:28:45.892Z,9.70
2023-02-21T13:31:21.142Z,8.40
2023-02-21T13:33:52.898Z,11.00
2023-02-21T13:36:29.635Z,7.90
2023-02-21T13:39:05.423Z,7.03
2023-02-21T13:41:37.740Z,8.57
2023-02-21T13:44:11.440Z,9.10
2023-02-21T13:47:10.615Z,6.10
2023-02-21T13:49:54.332Z,7.37
2023-02-21T13:52:53.769Z,13.20
2023-02-21T13:55:29.827Z,8.00
2023-02-21T13:58:32.667Z,11.47
2023-02-21T14:01:26.774Z,15.57
2023-02-21T14:03:58.185Z,10.23
2023-02-21T14:06:38.325Z,5.90
2023-02-21T14:09:14.165Z,5.20
2023-02-21T14:11:49.116Z,7.30
2023-02-21T14:14:25.180Z,8.47
2023-02-21T14:17:02.233Z,6.50
2023-02-21T14:19:36.920Z,8.87
2023-02-21T14:22:11.543Z,5.80
2023-02-21T14:24:42.838Z,5.27
2023-02-21T14:27:33.980Z,7.47
2023-02-21T14:30:34.566Z,6.17
2023-02-21T14:33:23.320Z,5.43
2023-02-21T14:36:00.421Z,4.97
2023-02-21T14:38:31.347Z,5.50
2023-02-21T14:41:17.496Z,4.37
2023-02-21T14:44:07.576Z,4.37
2023-02-21T14:47:08.545Z,4.73
2023-02-21T14:49:55.448Z,3.73
2023-02-21T14:52:44.124Z,5.77
2023-02-21T14:55:55.035Z,5.93
2023-02-21T14:58:42.131Z,11.43
2023-02-21T15:01:17.601Z,4.40
2023-02-21T15:03:50.034Z,4.33
2023-02-21T15:06:23.736Z,4.70
2023-02-21T15:08:53.161Z,7.00
2023-02-21T15:11:26.409Z,5.13
2023-02-21T15:14:26.532Z,5.30
2023-02-21T15:16:56.845Z,7.50
2023-02-21T15:19:29.050Z,4.87
2023-02-21T15:22:25.131Z,5.23
2023-02-21T15:25:03.134Z,5.97
2023-02-21T15:27:31.432Z,8.00
2023-02-21T15:30:08.681Z,4.80
2023-02-21T15:32:37.448Z,8.03
2023-02-21T15:35:09.090Z,5.17
2023-02-21T15:37:41.920Z,6.63
2023-02-21T15:40:20.466Z,4.00
2023-02-21T15:42:51.248Z,11.90
2023-02-21T15:45:23.759Z,7.70
2023-02-21T15:47:52.409Z,6.43
2023-02-21T15:50:30.633Z,4.77
2023-02-21T15:53:12.589Z,5.73
2023-02-21T15:55:41.331Z,6.50
2023-02-21T15:58:22.235Z,7.70
2023-02-21T16:01:06.974Z,6.67
2023-02-21T16:03:38.967Z,5.63
2023-02-21T16:06:17.457Z,4.00
2023-02-21T16:09:01.946Z,5.80
2023-02-21T16:11:41.689Z,7.77
2023-02-21T16:14:18.950Z,11.53
2023-02-21T16:16:47.744Z,6.10
2023-02-21T16:19:16.092Z,7.87
2023-02-21T16:21:44.206Z,8.63
2023-02-21T16:24:29.853Z,3.87
2023-02-21T16:27:05.743Z,8.00
2023-02-21T16:29:33.949Z,5.07
2023-02-21T16:32:02.273Z,12.03
2023-02-21T16:34:33.392Z,9.33
2023-02-21T16:37:07.747Z,8.90
2023-02-21T16:39:37.578Z,11.33
2023-02-21T16:42:05.878Z,6.67
2023-02-21T16:44:34.508Z,6.23
2023-02-21T16:47:02.796Z,11.23
2023-02-21T16:49:32.843Z,8.63
2023-02-21T16:52:01.274Z,8.43
2023-02-21T16:54:29.360Z,8.00
2023-02-21T16:56:59.097Z,9.17
2023-02-21T16:59:27.451Z,25.60
2023-02-21T17:01:55.668Z,37.60
2023-02-21T17:04:27.121Z,40.10
2023-02-21T17:06:59.079Z,45.53
2023-02-21T17:09:30.263Z,49.10
2023-02-21T17:12:00.667Z,52.47
2023-02-21T17:14:28.830Z,54.50
2023-02-21T17:16:59.682Z,58.93
2023-02-21T17:19:28.078Z,49.60
2023-02-21T17:21:58.272Z,45.43
2023-02-21T17:24:26.344Z,43.37
2023-02-21T17:26:55.039Z,39.37
2023-02-21T17:29:25.776Z,34.93
2023-02-21T17:31:54.747Z,28.63
2023-02-21T17:34:23.538Z,21.67
2023-02-21T17:36:53.438Z,23.60
2023-02-21T17:39:22.677Z,18.70
2023-02-21T17:41:51.864Z,17.67
2023-02-21T17:44:20.601Z,17.70
2023-02-21T17:46:50.916Z,20.43
2023-02-21T17:49:20.668Z,16.30
2023-02-21T17:51:49.483Z,14.50
2023-02-21T17:54:19.886Z,20.57
2023-02-21T17:56:48.756Z,27.67
2023-02-21T17:59:17.301Z,30.43
2023-02-21T18:01:45.745Z,24.37
2023-02-21T18:04:15.725Z,33.10
2023-02-21T18:06:44.016Z,27.23
2023-02-21T18:09:12.378Z,27.20
2023-02-21T18:11:40.565Z,20.83
2023-02-21T18:14:08.861Z,15.50
2023-02-21T18:16:36.953Z,16.07
2023-02-21T18:19:05.068Z,10.73
2023-02-21T18:21:34.575Z,20.83
2023-02-21T18:24:02.702Z,10.00
2023-02-21T18:26:30.825Z,9.77
2023-02-21T18:28:58.878Z,9.40
2023-02-21T18:31:27.278Z,7.20
2023-02-21T18:33:55.389Z,5.90
2023-02-21T18:36:23.920Z,6.53
2023-02-21T18:38:53.358Z,8.47
2023-02-21T18:41:22.959Z,8.77
2023-02-21T18:43:51.895Z,6.60
2023-02-21T18:46:22.250Z,11.20
2023-02-21T18:48:52.162Z,8.73
2023-02-21T18:51:21.484Z,10.17
2023-02-21T18:53:50.253Z,11.03
2023-02-21T18:56:21.199Z,11.37
2023-02-21T18:58:50.349Z,11.37
2023-02-21T19:01:21.752Z,18.03
2023-02-21T19:03:51.570Z,20.30
2023-02-21T19:06:21.688Z,30.43
2023-02-21T19:08:50.563Z,28.43
2023-02-21T19:11:20.389Z,22.50
2023-02-21T19:13:50.373Z,17.90
2023-02-21T19:16:20.617Z,24.63
2023-02-21T19:18:51.504Z,26.23
2023-02-21T19:21:19.910Z,28.37
2023-02-21T19:23:48.187Z,34.40
2023-02-21T19:26:16.309Z,25.63
2023-02-21T19:28:46.485Z,18.03
2023-02-21T19:31:18.957Z,13.47
2023-02-21T19:33:47.375Z,10.40
2023-02-21T19:36:15.593Z,9.23
2023-02-21T19:38:43.771Z,9.10
2023-02-21T19:41:11.843Z,6.10
2023-02-21T19:43:39.988Z,10.17
2023-02-21T19:46:09.550Z,8.50
2023-02-21T19:48:37.632Z,7.87
2023-02-21T19:51:06.237Z,6.83
2023-02-21T19:53:34.341Z,7.47
2023-02-21T19:56:02.989Z,12.80
2023-02-21T19:58:31.205Z,12.20
2023-02-21T20:00:59.529Z,17.03
2023-02-21T20:03:29.173Z,16.10
2023-02-21T20:05:58.509Z,16.97
2023-02-21T20:08:26.835Z,16.67
2023-02-21T20:10:55.031Z,13.53
2023-02-21T20:13:23.383Z,6.90
2023-02-21T20:15:51.510Z,11.80
2023-02-21T20:18:19.681Z,12.87
2023-02-21T20:20:49.629Z,5.63
2023-02-21T20:23:18.237Z,5.40
2023-02-21T20:25:46.510Z,5.40
2023-02-21T20:28:14.870Z,6.17
2023-02-21T20:30:43.603Z,6.90
2023-02-21T20:33:11.842Z,3.50
2023-02-21T20:35:39.988Z,6.93
2023-02-21T20:38:10.848Z,4.17
2023-02-21T20:40:39.813Z,9.43
2023-02-21T20:43:08.191Z,10.47
2023-02-21T20:45:37.288Z,7.73
2023-02-21T20:48:08.900Z,12.77
2023-02-21T20:50:37.012Z,8.77
2023-02-21T20:53:06.657Z,7.37
2023-02-21T20:55:37.379Z,11.97
2023-02-21T20:58:05.808Z,10.80
2023-02-21T21:00:37.665Z,11.80
2023-02-21T21:03:09.341Z,12.50
2023-02-21T21:05:37.567Z,8.70
2023-02-21T21:08:08.841Z,10.83
2023-02-21T21:10:38.609Z,7.50
2023-02-21T21:13:07.008Z,7.67
2023-02-21T21:15:35.185Z,14.03
2023-02-21T21:18:03.353Z,12.00
2023-02-21T21:20:33.346Z,13.97
2023-02-21T21:23:01.576Z,23.50
2023-02-21T21:25:34.680Z,18.40
2023-02-21T21:28:05.469Z,14.67
2023-02-21T21:30:33.855Z,18.63
2023-02-21T21:33:02.028Z,24.57
2023-02-21T21:35:30.879Z,20.50
2023-02-21T21:37:59.965Z,18.83
2023-02-21T21:40:28.842Z,20.60
2023-02-21T21:42:57.208Z,19.03
2023-02-21T21:45:28.390Z,14.07
2023-02-21T21:47:59.055Z,12.50
2023-02-21T21:50:27.438Z,15.10
2023-02-21T21:52:58.922Z,9.00
2023-02-21T21:55:29.591Z,11.60
2023-02-21T21:57:58.853Z,15.73
2023-02-21T22:00:30.259Z,8.00
2023-02-21T22:03:02.039Z,9.47
2023-02-21T22:05:31.899Z,9.50
2023-02-21T22:08:00.476Z,11.90
2023-02-21T22:10:29.879Z,9.67
2023-02-21T22:13:00.529Z,10.57
2023-02-21T22:15:31.094Z,12.13
2023-02-21T22:18:04.138Z,13.20
2023-02-21T22:20:32.355Z,12.77
2023-02-21T22:23:00.885Z,12.90
2023-02-21T22:25:31.957Z,13.63
2023-02-21T22:28:03.919Z,10.30
2023-02-21T22:30:33.399Z,11.77
2023-02-21T22:33:01.693Z,12.03
2023-02-21T22:35:29.812Z,11.30
2023-02-21T22:38:01.920Z,9.20
2023-02-21T22:40:34.967Z,10.50
2023-02-21T22:43:05.372Z,10.70
2023-02-21T22:45:34.905Z,11.93
2023-02-21T22:48:04.825Z,12.23
2023-02-21T22:50:36.827Z,6.37
2023-02-21T22:53:08.308Z,8.93
2023-02-21T22:55:38.085Z,8.67
2023-02-21T22:58:09.277Z,7.10
2023-02-21T23:00:39.142Z,10.87
2023-02-21T23:03:13.315Z,7.20
2023-02-21T23:05:43.615Z,16.30
2023-02-21T23:08:13.138Z,13.87
2023-02-21T23:10:41.686Z,13.47
2023-02-21T23:13:14.149Z,17.67
2023-02-21T23:15:45.128Z,14.70
2023-02-21T23:18:20.288Z,12.20
2023-02-21T23:20:52.504Z,13.80
2023-02-21T23:23:21.160Z,9.43
2023-02-21T23:25:49.580Z,11.17
2023-02-21T23:28:18.428Z,19.70
2023-02-21T23:30:49.607Z,10.90
2023-02-21T23:33:22.878Z,7.37
2023-02-21T23:35:52.307Z,10.30
2023-02-21T23:38:23.122Z,8.27
2023-02-21T23:40:56.103Z,8.33
2023-02-21T23:43:26.252Z,8.77
2023-02-21T23:45:56.540Z,8.83
2023-02-21T23:48:25.036Z,8.63
2023-02-21T23:50:57.503Z,11.83
2023-02-21T23:53:27.657Z,8.10
2023-02-21T23:55:57.701Z,5.00
2023-02-21T23:58:28.260Z,12.93
